sensor_id;sensor_type;location;lat;lon;timestamp;P1;durP1;ratioP1;P2;durP2;ratioP2
26690;SDS011;14307;51.718;8.938;2022-11-15T00:01:30;34.17;;;27.90;;
26690;SDS011;14307;51.718;8.938;2022-11-15T00:04:15;30.95;;;26.60;;
26690;SDS011;14307;51.718;8.938;2022-11-15T00:07:00;29.73;;;26.10;;
26690;SDS011;14307;51.718;8.938;2022-11-15T00:12:31;31.70;;;26.65;;
26690;SDS011;14307;51.718;8.938;2022-11-15T00:15:16;30.45;;;25.02;;
26690;SDS011;14307;51.718;8.938;2022-11-15T00:20:47;31.55;;;25.63;;
26690;SDS011;14307;51.718;8.938;2022-11-15T00:23:33;31.60;;;26.65;;
26690;SDS011;14307;51.718;8.938;2022-11-15T00:26:18;35.10;;;27.02;;
26690;SDS011;14307;51.718;8.938;2022-11-15T00:31:49;34.38;;;27.10;;
26690;SDS011;14307;51.718;8.938;2022-11-15T00:37:19;36.58;;;27.30;;
26690;SDS011;14307;51.718;8.938;2022-11-15T00:40:05;34.55;;;28.02;;
26690;SDS011;14307;51.718;8.938;2022-11-15T00:42:51;35.38;;;28.65;;
26690;SDS011;14307;51.718;8.938;2022-11-15T00:45:36;43.67;;;28.67;;
26690;SDS011;14307;51.718;8.938;2022-11-15T00:48:21;42.95;;;28.75;;
26690;SDS011;14307;51.718;8.938;2022-11-15T00:51:07;40.58;;;29.10;;
26690;SDS011;14307;51.718;8.938;2022-11-15T00:53:52;37.08;;;29.10;;
26690;SDS011;14307;51.718;8.938;2022-11-15T00:56:37;41.35;;;30.45;;
26690;SDS011;14307;51.718;8.938;2022-11-15T00:59:23;38.63;;;28.88;;
26690;SDS011;14307;51.718;8.938;2022-11-15T01:02:08;40.13;;;29.88;;
26690;SDS011;14307;51.718;8.938;2022-11-15T01:04:54;41.00;;;29.40;;
26690;SDS011;14307;51.718;8.938;2022-11-15T01:07:39;42.25;;;30.08;;
26690;SDS011;14307;51.718;8.938;2022-11-15T01:10:25;40.50;;;32.08;;
26690;SDS011;14307;51.718;8.938;2022-11-15T01:13:10;41.92;;;31.00;;
26690;SDS011;14307;51.718;8.938;2022-11-15T01:15:56;42.45;;;31.27;;
26690;SDS011;14307;51.718;8.938;2022-11-15T01:21:26;39.60;;;31.15;;
26690;SDS011;14307;51.718;8.938;2022-11-15T01:26:58;38.95;;;29.67;;
26690;SDS011;14307;51.718;8.938;2022-11-15T01:29:43;39.33;;;29.33;;
26690;SDS011;14307;51.718;8.938;2022-11-15T01:32:28;46.03;;;31.58;;
26690;SDS011;14307;51.718;8.938;2022-11-15T01:35:14;39.15;;;30.02;;
26690;SDS011;14307;51.718;8.938;2022-11-15T01:40:45;48.70;;;31.77;;
26690;SDS011;14307;51.718;8.938;2022-11-15T01:49:20;51.92;;;32.60;;
26690;SDS011;14307;51.718;8.938;2022-11-15T01:52:10;45.42;;;34.17;;
26690;SDS011;14307;51.718;8.938;2022-11-15T01:58:03;53.67;;;34.08;;
26690;SDS011;14307;51.718;8.938;2022-11-15T02:00:50;54.20;;;33.08;;
26690;SDS011;14307;51.718;8.938;2022-11-15T02:03:42;53.97;;;34.92;;
26690;SDS011;14307;51.718;8.938;2022-11-15T02:06:38;46.78;;;33.58;;
26690;SDS011;14307;51.718;8.938;2022-11-15T02:09:25;58.15;;;34.78;;
26690;SDS011;14307;51.718;8.938;2022-11-15T02:12:10;60.45;;;35.47;;
26690;SDS011;14307;51.718;8.938;2022-11-15T02:14:58;58.53;;;35.70;;
26690;SDS011;14307;51.718;8.938;2022-11-15T02:36:49;54.75;;;33.45;;
26690;SDS011;14307;51.718;8.938;2022-11-15T02:42:30;46.95;;;30.90;;
26690;SDS011;14307;51.718;8.938;2022-11-15T02:45:39;49.13;;;31.20;;
26690;SDS011;14307;51.718;8.938;2022-11-15T02:48:38;49.75;;;31.33;;
26690;SDS011;14307;51.718;8.938;2022-11-15T02:51:24;43.70;;;28.85;;
26690;SDS011;14307;51.718;8.938;2022-11-15T02:57:18;47.60;;;29.95;;
26690;SDS011;14307;51.718;8.938;2022-11-15T03:00:11;42.92;;;29.58;;
26690;SDS011;14307;51.718;8.938;2022-11-15T03:06:33;42.20;;;27.98;;
26690;SDS011;14307;51.718;8.938;2022-11-15T03:12:24;38.67;;;28.95;;
26690;SDS011;14307;51.718;8.938;2022-11-15T03:15:29;38.42;;;28.83;;
26690;SDS011;14307;51.718;8.938;2022-11-15T03:18:21;42.28;;;28.75;;
26690;SDS011;14307;51.718;8.938;2022-11-15T03:21:20;40.10;;;29.58;;
26690;SDS011;14307;51.718;8.938;2022-11-15T03:24:09;53.85;;;30.75;;
26690;SDS011;14307;51.718;8.938;2022-11-15T03:26:57;39.40;;;28.25;;
26690;SDS011;14307;51.718;8.938;2022-11-15T03:29:46;39.53;;;27.13;;
26690;SDS011;14307;51.718;8.938;2022-11-15T03:32:44;40.42;;;26.60;;
26690;SDS011;14307;51.718;8.938;2022-11-15T03:35:35;40.38;;;27.13;;
26690;SDS011;14307;51.718;8.938;2022-11-15T03:38:25;43.97;;;27.67;;
26690;SDS011;14307;51.718;8.938;2022-11-15T03:41:22;32.97;;;26.02;;
26690;SDS011;14307;51.718;8.938;2022-11-15T03:44:14;34.17;;;25.75;;
26690;SDS011;14307;51.718;8.938;2022-11-15T03:47:35;31.80;;;26.80;;
26690;SDS011;14307;51.718;8.938;2022-11-15T03:50:24;37.63;;;26.60;;
26690;SDS011;14307;51.718;8.938;2022-11-15T03:53:11;36.58;;;25.38;;
26690;SDS011;14307;51.718;8.938;2022-11-15T03:55:58;34.45;;;26.05;;
26690;SDS011;14307;51.718;8.938;2022-11-15T03:58:43;34.03;;;24.33;;
26690;SDS011;14307;51.718;8.938;2022-11-15T04:01:28;36.88;;;24.98;;
26690;SDS011;14307;51.718;8.938;2022-11-15T04:04:14;38.97;;;26.08;;
26690;SDS011;14307;51.718;8.938;2022-11-15T04:06:59;33.38;;;25.20;;
26690;SDS011;14307;51.718;8.938;2022-11-15T04:12:48;30.65;;;22.73;;
26690;SDS011;14307;51.718;8.938;2022-11-15T04:15:33;26.75;;;20.85;;
26690;SDS011;14307;51.718;8.938;2022-11-15T04:18:19;32.90;;;22.45;;
26690;SDS011;14307;51.718;8.938;2022-11-15T04:24:08;27.55;;;21.63;;
26690;SDS011;14307;51.718;8.938;2022-11-15T04:26:57;33.88;;;21.52;;
26690;SDS011;14307;51.718;8.938;2022-11-15T04:32:28;27.40;;;21.20;;
26690;SDS011;14307;51.718;8.938;2022-11-15T04:35:13;27.27;;;21.85;;
26690;SDS011;14307;51.718;8.938;2022-11-15T04:40:45;31.50;;;23.98;;
26690;SDS011;14307;51.718;8.938;2022-11-15T04:43:31;29.23;;;22.60;;
26690;SDS011;14307;51.718;8.938;2022-11-15T04:46:17;32.33;;;24.67;;
26690;SDS011;14307;51.718;8.938;2022-11-15T04:51:48;33.03;;;24.03;;
26690;SDS011;14307;51.718;8.938;2022-11-15T04:57:19;36.63;;;26.52;;
26690;SDS011;14307;51.718;8.938;2022-11-15T05:00:05;34.00;;;26.52;;
26690;SDS011;14307;51.718;8.938;2022-11-15T05:02:52;31.75;;;27.25;;
26690;SDS011;14307;51.718;8.938;2022-11-15T05:05:57;36.55;;;28.52;;
26690;SDS011;14307;51.718;8.938;2022-11-15T05:08:43;31.63;;;26.55;;
26690;SDS011;14307;51.718;8.938;2022-11-15T05:11:29;35.17;;;28.73;;
26690;SDS011;14307;51.718;8.938;2022-11-15T05:17:00;32.72;;;27.40;;
26690;SDS011;14307;51.718;8.938;2022-11-15T05:22:30;30.67;;;27.23;;
26690;SDS011;14307;51.718;8.938;2022-11-15T05:25:16;32.22;;;27.10;;
26690;SDS011;14307;51.718;8.938;2022-11-15T05:28:02;30.67;;;27.50;;
26690;SDS011;14307;51.718;8.938;2022-11-15T05:30:47;33.33;;;29.77;;
26690;SDS011;14307;51.718;8.938;2022-11-15T05:33:32;32.38;;;28.98;;
26690;SDS011;14307;51.718;8.938;2022-11-15T05:36:21;33.47;;;29.63;;
26690;SDS011;14307;51.718;8.938;2022-11-15T05:39:16;31.23;;;28.02;;
26690;SDS011;14307;51.718;8.938;2022-11-15T05:44:55;31.40;;;28.10;;
26690;SDS011;14307;51.718;8.938;2022-11-15T05:47:42;34.95;;;28.10;;
26690;SDS011;14307;51.718;8.938;2022-11-15T05:50:28;30.33;;;27.23;;
26690;SDS011;14307;51.718;8.938;2022-11-15T05:53:14;30.40;;;27.25;;
26690;SDS011;14307;51.718;8.938;2022-11-15T05:56:04;29.42;;;26.65;;
26690;SDS011;14307;51.718;8.938;2022-11-15T05:58:52;29.08;;;26.08;;
26690;SDS011;14307;51.718;8.938;2022-11-15T06:01:43;27.80;;;25.05;;
26690;SDS011;14307;51.718;8.938;2022-11-15T06:07:13;27.65;;;25.25;;
26690;SDS011;14307;51.718;8.938;2022-11-15T06:12:44;27.90;;;25.30;;
26690;SDS011;14307;51.718;8.938;2022-11-15T06:15:29;28.50;;;25.45;;
26690;SDS011;14307;51.718;8.938;2022-11-15T06:18:16;27.80;;;25.30;;
26690;SDS011;14307;51.718;8.938;2022-11-15T06:21:02;28.27;;;25.77;;
26690;SDS011;14307;51.718;8.938;2022-11-15T06:23:48;27.83;;;24.98;;
26690;SDS011;14307;51.718;8.938;2022-11-15T06:26:33;27.77;;;24.88;;
26690;SDS011;14307;51.718;8.938;2022-11-15T06:29:18;27.23;;;24.42;;
26690;SDS011;14307;51.718;8.938;2022-11-15T06:34:49;26.23;;;23.53;;
26690;SDS011;14307;51.718;8.938;2022-11-15T06:37:34;26.52;;;23.73;;
26690;SDS011;14307;51.718;8.938;2022-11-15T06:40:19;24.92;;;22.02;;
26690;SDS011;14307;51.718;8.938;2022-11-15T06:43:05;24.70;;;22.33;;
26690;SDS011;14307;51.718;8.938;2022-11-15T06:45:51;24.77;;;22.30;;
26690;SDS011;14307;51.718;8.938;2022-11-15T06:48:36;24.08;;;21.67;;
26690;SDS011;14307;51.718;8.938;2022-11-15T06:54:08;23.13;;;20.75;;
26690;SDS011;14307;51.718;8.938;2022-11-15T06:56:53;22.30;;;20.30;;
26690;SDS011;14307;51.718;8.938;2022-11-15T06:59:38;25.02;;;22.48;;
26690;SDS011;14307;51.718;8.938;2022-11-15T07:02:24;22.80;;;20.60;;
26690;SDS011;14307;51.718;8.938;2022-11-15T07:05:10;24.45;;;22.08;;
26690;SDS011;14307;51.718;8.938;2022-11-15T07:07:57;23.02;;;20.90;;
26690;SDS011;14307;51.718;8.938;2022-11-15T07:10:42;25.00;;;22.50;;
26690;SDS011;14307;51.718;8.938;2022-11-15T07:13:29;24.63;;;22.20;;
26690;SDS011;14307;51.718;8.938;2022-11-15T07:16:19;25.48;;;23.00;;
26690;SDS011;14307;51.718;8.938;2022-11-15T07:21:50;25.25;;;22.80;;
26690;SDS011;14307;51.718;8.938;2022-11-15T07:24:35;27.00;;;24.45;;
26690;SDS011;14307;51.718;8.938;2022-11-15T07:30:07;25.33;;;22.02;;
26690;SDS011;14307;51.718;8.938;2022-11-15T07:32:57;23.83;;;21.67;;
26690;SDS011;14307;51.718;8.938;2022-11-15T07:35:43;25.63;;;23.20;;
26690;SDS011;14307;51.718;8.938;2022-11-15T07:38:31;24.67;;;22.10;;
26690;SDS011;14307;51.718;8.938;2022-11-15T07:41:26;24.67;;;22.35;;
26690;SDS011;14307;51.718;8.938;2022-11-15T07:46:56;26.98;;;23.10;;
26690;SDS011;14307;51.718;8.938;2022-11-15T07:49:43;25.80;;;23.58;;
26690;SDS011;14307;51.718;8.938;2022-11-15T07:52:30;26.40;;;23.77;;
26690;SDS011;14307;51.718;8.938;2022-11-15T07:58:05;27.27;;;24.63;;
26690;SDS011;14307;51.718;8.938;2022-11-15T08:00:55;27.50;;;25.17;;
26690;SDS011;14307;51.718;8.938;2022-11-15T08:03:40;27.77;;;25.58;;
26690;SDS011;14307;51.718;8.938;2022-11-15T08:09:11;28.35;;;25.45;;
26690;SDS011;14307;51.718;8.938;2022-11-15T08:11:56;28.25;;;26.02;;
26690;SDS011;14307;51.718;8.938;2022-11-15T08:17:27;29.90;;;27.33;;
26690;SDS011;14307;51.718;8.938;2022-11-15T08:20:16;30.50;;;27.90;;
26690;SDS011;14307;51.718;8.938;2022-11-15T08:23:02;30.38;;;28.08;;
26690;SDS011;14307;51.718;8.938;2022-11-15T08:25:48;31.17;;;28.70;;
26690;SDS011;14307;51.718;8.938;2022-11-15T08:28:34;31.95;;;29.35;;
26690;SDS011;14307;51.718;8.938;2022-11-15T08:31:20;33.38;;;30.67;;
26690;SDS011;14307;51.718;8.938;2022-11-15T08:34:05;33.13;;;30.40;;
26690;SDS011;14307;51.718;8.938;2022-11-15T08:36:51;30.45;;;28.17;;
26690;SDS011;14307;51.718;8.938;2022-11-15T08:39:36;30.95;;;28.40;;
26690;SDS011;14307;51.718;8.938;2022-11-15T08:42:22;31.00;;;28.45;;
26690;SDS011;14307;51.718;8.938;2022-11-15T08:45:08;29.85;;;27.95;;
26690;SDS011;14307;51.718;8.938;2022-11-15T08:47:53;30.10;;;27.85;;
26690;SDS011;14307;51.718;8.938;2022-11-15T08:50:39;30.35;;;28.35;;
26690;SDS011;14307;51.718;8.938;2022-11-15T08:53:24;31.15;;;29.02;;
26690;SDS011;14307;51.718;8.938;2022-11-15T08:56:10;30.30;;;28.15;;
26690;SDS011;14307;51.718;8.938;2022-11-15T08:58:57;30.15;;;28.25;;
26690;SDS011;14307;51.718;8.938;2022-11-15T09:04:27;27.83;;;25.92;;
26690;SDS011;14307;51.718;8.938;2022-11-15T09:07:15;28.45;;;26.70;;
26690;SDS011;14307;51.718;8.938;2022-11-15T09:10:01;29.00;;;27.00;;
26690;SDS011;14307;51.718;8.938;2022-11-15T09:12:48;31.10;;;29.00;;
26690;SDS011;14307;51.718;8.938;2022-11-15T09:15:33;31.92;;;30.05;;
26690;SDS011;14307;51.718;8.938;2022-11-15T09:18:19;32.00;;;30.05;;
26690;SDS011;14307;51.718;8.938;2022-11-15T09:21:07;31.33;;;29.33;;
26690;SDS011;14307;51.718;8.938;2022-11-15T09:23:52;31.33;;;29.52;;
26690;SDS011;14307;51.718;8.938;2022-11-15T09:29:23;29.08;;;27.23;;
26690;SDS011;14307;51.718;8.938;2022-11-15T09:32:08;29.75;;;27.95;;
26690;SDS011;14307;51.718;8.938;2022-11-15T09:37:39;30.48;;;28.55;;
26690;SDS011;14307;51.718;8.938;2022-11-15T09:49:13;31.65;;;29.52;;
26690;SDS011;14307;51.718;8.938;2022-11-15T09:52:03;30.25;;;28.40;;
26690;SDS011;14307;51.718;8.938;2022-11-15T09:54:34;28.70;;;26.98;;
26690;SDS011;14307;51.718;8.938;2022-11-15T09:57:30;28.50;;;26.70;;
26690;SDS011;14307;51.718;8.938;2022-11-15T10:03:12;26.77;;;25.13;;
26690;SDS011;14307;51.718;8.938;2022-11-15T10:05:49;27.13;;;25.23;;
26690;SDS011;14307;51.718;8.938;2022-11-15T10:08:37;27.85;;;26.15;;
26690;SDS011;14307;51.718;8.938;2022-11-15T10:11:17;28.42;;;26.92;;
26690;SDS011;14307;51.718;8.938;2022-11-15T10:16:48;28.00;;;26.33;;
26690;SDS011;14307;51.718;8.938;2022-11-15T10:19:26;29.60;;;27.90;;
26690;SDS011;14307;51.718;8.938;2022-11-15T10:27:35;26.95;;;25.35;;
26690;SDS011;14307;51.718;8.938;2022-11-15T10:30:02;26.75;;;25.05;;
26690;SDS011;14307;51.718;8.938;2022-11-15T10:32:30;25.70;;;24.10;;
26690;SDS011;14307;51.718;8.938;2022-11-15T10:35:01;26.85;;;25.33;;
26690;SDS011;14307;51.718;8.938;2022-11-15T10:37:49;25.98;;;24.33;;
26690;SDS011;14307;51.718;8.938;2022-11-15T10:40:23;25.83;;;24.23;;
26690;SDS011;14307;51.718;8.938;2022-11-15T10:43:04;25.93;;;24.43;;
26690;SDS011;14307;51.718;8.938;2022-11-15T10:45:37;26.48;;;24.88;;
26690;SDS011;14307;51.718;8.938;2022-11-15T10:50:41;26.40;;;24.70;;
26690;SDS011;14307;51.718;8.938;2022-11-15T10:53:17;27.17;;;25.15;;
26690;SDS011;14307;51.718;8.938;2022-11-15T10:55:49;25.90;;;24.20;;
26690;SDS011;14307;51.718;8.938;2022-11-15T10:59:01;25.75;;;23.80;;
26690;SDS011;14307;51.718;8.938;2022-11-15T11:03:40;25.42;;;23.92;;
26690;SDS011;14307;51.718;8.938;2022-11-15T11:14:21;25.25;;;23.75;;
26690;SDS011;14307;51.718;8.938;2022-11-15T11:16:54;26.30;;;24.60;;
26690;SDS011;14307;51.718;8.938;2022-11-15T11:35:46;27.65;;;25.95;;
26690;SDS011;14307;51.718;8.938;2022-11-15T11:43:40;25.88;;;24.48;;
26690;SDS011;14307;51.718;8.938;2022-11-15T11:49:29;27.25;;;25.65;;
26690;SDS011;14307;51.718;8.938;2022-11-15T11:58:38;26.67;;;25.02;;
26690;SDS011;14307;51.718;8.938;2022-11-15T12:04:26;27.73;;;25.95;;
26690;SDS011;14307;51.718;8.938;2022-11-15T12:09:41;27.08;;;25.33;;
26690;SDS011;14307;51.718;8.938;2022-11-15T12:12:38;26.60;;;25.08;;
26690;SDS011;14307;51.718;8.938;2022-11-15T12:15:17;27.92;;;26.08;;
26690;SDS011;14307;51.718;8.938;2022-11-15T12:17:48;28.30;;;26.52;;
26690;SDS011;14307;51.718;8.938;2022-11-15T12:20:16;26.02;;;24.52;;
26690;SDS011;14307;51.718;8.938;2022-11-15T12:31:39;26.42;;;24.92;;
26690;SDS011;14307;51.718;8.938;2022-11-15T12:36:49;25.60;;;24.10;;
26690;SDS011;14307;51.718;8.938;2022-11-15T12:39:17;26.08;;;24.48;;
26690;SDS011;14307;51.718;8.938;2022-11-15T12:42:39;25.83;;;24.23;;
26690;SDS011;14307;51.718;8.938;2022-11-15T12:47:25;25.20;;;23.48;;
26690;SDS011;14307;51.718;8.938;2022-11-15T12:49:52;24.55;;;23.00;;
26690;SDS011;14307;51.718;8.938;2022-11-15T12:52:19;25.70;;;24.10;;
26690;SDS011;14307;51.718;8.938;2022-11-15T12:54:50;26.58;;;25.08;;
26690;SDS011;14307;51.718;8.938;2022-11-15T12:57:25;25.95;;;24.38;;
26690;SDS011;14307;51.718;8.938;2022-11-15T13:00:04;25.35;;;23.70;;
26690;SDS011;14307;51.718;8.938;2022-11-15T13:02:41;24.95;;;23.25;;
26690;SDS011;14307;51.718;8.938;2022-11-15T13:12:57;25.05;;;23.45;;
26690;SDS011;14307;51.718;8.938;2022-11-15T13:18:25;23.25;;;21.95;;
26690;SDS011;14307;51.718;8.938;2022-11-15T13:20:53;24.40;;;23.00;;
26690;SDS011;14307;51.718;8.938;2022-11-15T13:23:27;25.23;;;23.73;;
26690;SDS011;14307;51.718;8.938;2022-11-15T13:25:57;23.85;;;22.45;;
26690;SDS011;14307;51.718;8.938;2022-11-15T13:28:46;23.50;;;22.23;;
26690;SDS011;14307;51.718;8.938;2022-11-15T13:31:37;23.83;;;22.42;;
26690;SDS011;14307;51.718;8.938;2022-11-15T13:34:24;24.40;;;23.10;;
26690;SDS011;14307;51.718;8.938;2022-11-15T13:39:46;23.88;;;22.48;;
26690;SDS011;14307;51.718;8.938;2022-11-15T13:42:14;22.38;;;21.10;;
26690;SDS011;14307;51.718;8.938;2022-11-15T13:44:59;23.02;;;21.45;;
26690;SDS011;14307;51.718;8.938;2022-11-15T13:47:29;22.80;;;21.50;;
26690;SDS011;14307;51.718;8.938;2022-11-15T13:49:56;22.73;;;21.35;;
26690;SDS011;14307;51.718;8.938;2022-11-15T13:52:25;23.25;;;21.85;;
26690;SDS011;14307;51.718;8.938;2022-11-15T13:54:59;23.70;;;22.40;;
26690;SDS011;14307;51.718;8.938;2022-11-15T13:57:34;22.85;;;21.50;;
26690;SDS011;14307;51.718;8.938;2022-11-15T14:02:57;24.88;;;23.08;;
26690;SDS011;14307;51.718;8.938;2022-11-15T14:06:08;23.45;;;21.90;;
26690;SDS011;14307;51.718;8.938;2022-11-15T14:08:39;24.80;;;22.70;;
26690;SDS011;14307;51.718;8.938;2022-11-15T14:11:17;24.88;;;23.05;;
26690;SDS011;14307;51.718;8.938;2022-11-15T14:16:37;23.77;;;22.45;;
26690;SDS011;14307;51.718;8.938;2022-11-15T14:19:09;24.30;;;23.00;;
26690;SDS011;14307;51.718;8.938;2022-11-15T14:22:06;24.50;;;22.92;;
26690;SDS011;14307;51.718;8.938;2022-11-15T14:24:35;24.52;;;23.13;;
26690;SDS011;14307;51.718;8.938;2022-11-15T14:27:18;24.40;;;23.10;;
26690;SDS011;14307;51.718;8.938;2022-11-15T14:29:46;24.05;;;22.58;;
26690;SDS011;14307;51.718;8.938;2022-11-15T14:32:15;24.13;;;22.33;;
26690;SDS011;14307;51.718;8.938;2022-11-15T14:34:49;23.23;;;21.83;;
26690;SDS011;14307;51.718;8.938;2022-11-15T14:37:27;24.35;;;22.70;;
26690;SDS011;14307;51.718;8.938;2022-11-15T14:39:57;23.10;;;21.70;;
26690;SDS011;14307;51.718;8.938;2022-11-15T14:42:24;23.00;;;21.60;;
26690;SDS011;14307;51.718;8.938;2022-11-15T14:44:51;23.83;;;22.48;;
26690;SDS011;14307;51.718;8.938;2022-11-15T14:47:18;22.83;;;21.52;;
26690;SDS011;14307;51.718;8.938;2022-11-15T14:49:44;23.90;;;22.50;;
26690;SDS011;14307;51.718;8.938;2022-11-15T14:52:25;25.02;;;23.65;;
26690;SDS011;14307;51.718;8.938;2022-11-15T14:54:58;24.33;;;23.00;;
26690;SDS011;14307;51.718;8.938;2022-11-15T14:57:27;23.80;;;22.50;;
26690;SDS011;14307;51.718;8.938;2022-11-15T14:59:54;24.13;;;22.55;;
26690;SDS011;14307;51.718;8.938;2022-11-15T15:02:21;23.70;;;22.50;;
26690;SDS011;14307;51.718;8.938;2022-11-15T15:04:50;24.30;;;23.00;;
26690;SDS011;14307;51.718;8.938;2022-11-15T15:07:17;24.20;;;22.80;;
26690;SDS011;14307;51.718;8.938;2022-11-15T15:09:44;25.58;;;24.17;;
26690;SDS011;14307;51.718;8.938;2022-11-15T15:12:13;26.05;;;24.45;;
26690;SDS011;14307;51.718;8.938;2022-11-15T15:14:40;25.33;;;23.83;;
26690;SDS011;14307;51.718;8.938;2022-11-15T15:17:07;24.90;;;23.60;;
26690;SDS011;14307;51.718;8.938;2022-11-15T15:19:34;20.50;;;19.40;;
26690;SDS011;14307;51.718;8.938;2022-11-15T15:22:01;21.83;;;20.42;;
26690;SDS011;14307;51.718;8.938;2022-11-15T15:24:27;23.80;;;22.30;;
26690;SDS011;14307;51.718;8.938;2022-11-15T15:26:54;21.70;;;20.20;;
26690;SDS011;14307;51.718;8.938;2022-11-15T15:29:21;22.27;;;20.77;;
26690;SDS011;14307;51.718;8.938;2022-11-15T15:31:47;22.52;;;21.00;;
26690;SDS011;14307;51.718;8.938;2022-11-15T15:34:14;23.05;;;21.65;;
26690;SDS011;14307;51.718;8.938;2022-11-15T15:36:42;22.48;;;21.08;;
26690;SDS011;14307;51.718;8.938;2022-11-15T15:39:10;26.13;;;24.52;;
26690;SDS011;14307;51.718;8.938;2022-11-15T15:41:37;23.38;;;21.88;;
26690;SDS011;14307;51.718;8.938;2022-11-15T15:44:04;22.73;;;21.38;;
26690;SDS011;14307;51.718;8.938;2022-11-15T15:46:33;25.98;;;24.35;;
26690;SDS011;14307;51.718;8.938;2022-11-15T15:49:01;24.17;;;22.58;;
26690;SDS011;14307;51.718;8.938;2022-11-15T15:51:28;23.80;;;22.25;;
26690;SDS011;14307;51.718;8.938;2022-11-15T15:53:54;23.60;;;22.10;;
26690;SDS011;14307;51.718;8.938;2022-11-15T15:56:24;25.58;;;23.77;;
26690;SDS011;14307;51.718;8.938;2022-11-15T15:58:50;23.90;;;22.30;;
26690;SDS011;14307;51.718;8.938;2022-11-15T16:01:18;28.55;;;26.42;;
26690;SDS011;14307;51.718;8.938;2022-11-15T16:03:45;27.42;;;25.63;;
26690;SDS011;14307;51.718;8.938;2022-11-15T16:09:02;23.42;;;22.00;;
26690;SDS011;14307;51.718;8.938;2022-11-15T16:11:46;23.27;;;21.88;;
26690;SDS011;14307;51.718;8.938;2022-11-15T16:14:13;23.60;;;22.13;;
26690;SDS011;14307;51.718;8.938;2022-11-15T16:16:39;24.52;;;22.58;;
26690;SDS011;14307;51.718;8.938;2022-11-15T16:19:07;23.48;;;21.98;;
26690;SDS011;14307;51.718;8.938;2022-11-15T16:21:36;23.90;;;21.80;;
26690;SDS011;14307;51.718;8.938;2022-11-15T16:24:03;22.85;;;21.55;;
26690;SDS011;14307;51.718;8.938;2022-11-15T16:26:30;22.60;;;21.20;;
26690;SDS011;14307;51.718;8.938;2022-11-15T16:28:59;24.35;;;22.77;;
26690;SDS011;14307;51.718;8.938;2022-11-15T16:31:25;22.98;;;21.58;;
26690;SDS011;14307;51.718;8.938;2022-11-15T16:33:54;28.50;;;26.40;;
26690;SDS011;14307;51.718;8.938;2022-11-15T16:36:22;24.25;;;22.55;;
26690;SDS011;14307;51.718;8.938;2022-11-15T16:38:56;23.75;;;22.05;;
26690;SDS011;14307;51.718;8.938;2022-11-15T16:41:23;22.92;;;21.42;;
26690;SDS011;14307;51.718;8.938;2022-11-15T16:43:50;22.23;;;20.75;;
26690;SDS011;14307;51.718;8.938;2022-11-15T16:46:18;23.00;;;21.40;;
26690;SDS011;14307;51.718;8.938;2022-11-15T16:48:47;22.95;;;21.48;;
26690;SDS011;14307;51.718;8.938;2022-11-15T16:51:14;24.08;;;22.33;;
26690;SDS011;14307;51.718;8.938;2022-11-15T16:53:41;22.15;;;20.85;;
26690;SDS011;14307;51.718;8.938;2022-11-15T16:56:14;22.67;;;21.38;;
26690;SDS011;14307;51.718;8.938;2022-11-15T16:58:47;22.15;;;20.60;;
26690;SDS011;14307;51.718;8.938;2022-11-15T17:01:18;22.13;;;20.73;;
26690;SDS011;14307;51.718;8.938;2022-11-15T17:03:48;23.42;;;21.65;;
26690;SDS011;14307;51.718;8.938;2022-11-15T17:06:15;22.70;;;21.20;;
26690;SDS011;14307;51.718;8.938;2022-11-15T17:08:44;23.17;;;21.65;;
26690;SDS011;14307;51.718;8.938;2022-11-15T17:11:15;22.55;;;20.92;;
26690;SDS011;14307;51.718;8.938;2022-11-15T17:13:44;21.40;;;19.80;;
26690;SDS011;14307;51.718;8.938;2022-11-15T17:16:12;23.40;;;21.90;;
26690;SDS011;14307;51.718;8.938;2022-11-15T17:18:40;23.88;;;22.35;;
26690;SDS011;14307;51.718;8.938;2022-11-15T17:21:12;22.77;;;21.38;;
26690;SDS011;14307;51.718;8.938;2022-11-15T17:23:40;23.48;;;21.88;;
26690;SDS011;14307;51.718;8.938;2022-11-15T17:26:08;25.75;;;23.85;;
26690;SDS011;14307;51.718;8.938;2022-11-15T17:28:55;23.23;;;21.50;;
26690;SDS011;14307;51.718;8.938;2022-11-15T17:31:22;22.00;;;20.65;;
26690;SDS011;14307;51.718;8.938;2022-11-15T17:33:48;22.42;;;20.83;;
26690;SDS011;14307;51.718;8.938;2022-11-15T17:36:15;22.85;;;21.42;;
26690;SDS011;14307;51.718;8.938;2022-11-15T17:38:42;22.17;;;20.77;;
26690;SDS011;14307;51.718;8.938;2022-11-15T17:41:12;23.90;;;22.10;;
26690;SDS011;14307;51.718;8.938;2022-11-15T17:43:40;22.33;;;20.90;;
26690;SDS011;14307;51.718;8.938;2022-11-15T17:46:09;21.67;;;20.27;;
26690;SDS011;14307;51.718;8.938;2022-11-15T17:48:38;22.20;;;20.60;;
26690;SDS011;14307;51.718;8.938;2022-11-15T17:51:05;21.63;;;20.23;;
26690;SDS011;14307;51.718;8.938;2022-11-15T17:53:34;21.80;;;20.42;;
26690;SDS011;14307;51.718;8.938;2022-11-15T17:56:15;22.40;;;21.00;;
26690;SDS011;14307;51.718;8.938;2022-11-15T17:58:53;24.63;;;22.90;;
26690;SDS011;14307;51.718;8.938;2022-11-15T18:01:21;24.85;;;23.20;;
26690;SDS011;14307;51.718;8.938;2022-11-15T18:03:56;23.15;;;21.75;;
26690;SDS011;14307;51.718;8.938;2022-11-15T18:06:25;24.98;;;23.27;;
26690;SDS011;14307;51.718;8.938;2022-11-15T18:08:55;35.83;;;32.75;;
26690;SDS011;14307;51.718;8.938;2022-11-15T18:11:30;22.67;;;20.98;;
26690;SDS011;14307;51.718;8.938;2022-11-15T18:13:59;23.65;;;22.15;;
26690;SDS011;14307;51.718;8.938;2022-11-15T18:16:29;27.80;;;25.73;;
26690;SDS011;14307;51.718;8.938;2022-11-15T18:18:58;23.40;;;21.77;;
26690;SDS011;14307;51.718;8.938;2022-11-15T18:21:28;25.65;;;23.85;;
26690;SDS011;14307;51.718;8.938;2022-11-15T18:23:58;26.15;;;24.02;;
26690;SDS011;14307;51.718;8.938;2022-11-15T18:26:27;24.30;;;22.80;;
26690;SDS011;14307;51.718;8.938;2022-11-15T18:28:56;22.17;;;20.80;;
26690;SDS011;14307;51.718;8.938;2022-11-15T18:31:28;22.27;;;20.77;;
26690;SDS011;14307;51.718;8.938;2022-11-15T18:33:59;24.98;;;23.27;;
26690;SDS011;14307;51.718;8.938;2022-11-15T18:36:27;23.10;;;21.60;;
26690;SDS011;14307;51.718;8.938;2022-11-15T18:38:56;21.75;;;20.45;;
26690;SDS011;14307;51.718;8.938;2022-11-15T18:41:28;24.13;;;22.05;;
26690;SDS011;14307;51.718;8.938;2022-11-15T18:43:56;22.20;;;20.77;;
26690;SDS011;14307;51.718;8.938;2022-11-15T18:46:25;25.98;;;23.80;;
26690;SDS011;14307;51.718;8.938;2022-11-15T18:48:54;30.40;;;27.52;;
26690;SDS011;14307;51.718;8.938;2022-11-15T18:51:23;30.08;;;27.25;;
26690;SDS011;14307;51.718;8.938;2022-11-15T18:53:52;28.02;;;25.60;;
26690;SDS011;14307;51.718;8.938;2022-11-15T18:56:20;24.13;;;22.63;;
26690;SDS011;14307;51.718;8.938;2022-11-15T18:58:49;33.67;;;30.20;;
26690;SDS011;14307;51.718;8.938;2022-11-15T19:01:21;27.15;;;24.95;;
26690;SDS011;14307;51.718;8.938;2022-11-15T19:03:51;23.80;;;22.20;;
26690;SDS011;14307;51.718;8.938;2022-11-15T19:06:26;24.73;;;22.92;;
26690;SDS011;14307;51.718;8.938;2022-11-15T19:08:58;34.63;;;31.02;;
26690;SDS011;14307;51.718;8.938;2022-11-15T19:11:29;23.65;;;22.25;;
26690;SDS011;14307;51.718;8.938;2022-11-15T19:14:02;25.85;;;24.10;;
26690;SDS011;14307;51.718;8.938;2022-11-15T19:16:31;24.50;;;22.90;;
26690;SDS011;14307;51.718;8.938;2022-11-15T19:19:06;23.92;;;21.95;;